TimeEDT,TemperatureF,Dew PointF,Humidity,Sea Level PressureIn,VisibilityMPH,Wind Direction,Wind SpeedMPH,Gust SpeedMPH,PrecipitationIn,Events,Conditions,WindDirDegrees,DateUTC
12:53 AM,77.0,71.1,82,29.87,10.0,South,9.2,-,N/A,,Clear,170,2013-07-01 04:53:00
1:53 AM,75.9,71.1,85,29.86,10.0,South,6.9,-,N/A,,Clear,170,2013-07-01 05:53:00
2:44 AM,75.2,71.6,89,29.86,10.0,South,8.1,-,N/A,,Partly Cloudy,170,2013-07-01 06:44:00
2:53 AM,75.0,71.1,87,29.86,10.0,South,6.9,-,N/A,,Scattered Clouds,180,2013-07-01 06:53:00
3:01 AM,75.2,71.6,89,29.86,10.0,South,8.1,-,N/A,,Mostly Cloudy,180,2013-07-01 07:01:00
3:53 AM,75.9,71.1,85,29.85,10.0,South,6.9,-,N/A,,Mostly Cloudy,180,2013-07-01 07:53:00
4:04 AM,75.2,71.6,89,29.85,10.0,South,6.9,-,N/A,,Scattered Clouds,190,2013-07-01 08:04:00
4:19 AM,75.2,71.6,89,29.85,10.0,South,8.1,-,N/A,,Mostly Cloudy,190,2013-07-01 08:19:00
4:53 AM,75.9,71.1,85,29.84,10.0,SSW,5.8,-,N/A,,Mostly Cloudy,200,2013-07-01 08:53:00
5:03 AM,75.2,71.6,89,29.85,10.0,SSW,5.8,-,N/A,,Scattered Clouds,200,2013-07-01 09:03:00
5:53 AM,75.9,71.1,85,29.86,10.0,South,3.5,-,N/A,,Clear,190,2013-07-01 09:53:00
6:53 AM,75.9,71.1,85,29.88,10.0,South,5.8,-,N/A,,Clear,180,2013-07-01 10:53:00
7:53 AM,77.0,72.0,84,29.90,10.0,South,4.6,-,N/A,,Scattered Clouds,180,2013-07-01 11:53:00
8:24 AM,78.8,71.6,78,29.90,10.0,South,6.9,-,N/A,,Mostly Cloudy,180,2013-07-01 12:24:00
8:53 AM,80.1,73.0,79,29.90,10.0,South,8.1,-,N/A,,Mostly Cloudy,180,2013-07-01 12:53:00
9:08 AM,80.6,73.4,79,29.90,10.0,SW,8.1,-,N/A,,Scattered Clouds,220,2013-07-01 13:08:00
9:53 AM,84.0,72.0,67,29.91,10.0,South,11.5,-,N/A,,Partly Cloudy,190,2013-07-01 13:53:00
10:30 AM,84.2,71.6,66,29.92,10.0,SSW,13.8,19.6,N/A,,Mostly Cloudy,210,2013-07-01 14:30:00
10:42 AM,84.2,71.6,66,29.92,10.0,SW,16.1,-,N/A,,Scattered Clouds,230,2013-07-01 14:42:00
10:53 AM,84.9,72.0,65,29.92,10.0,SW,11.5,-,N/A,,Partly Cloudy,220,2013-07-01 14:53:00
11:18 AM,84.2,71.6,66,29.92,10.0,SW,8.1,17.3,N/A,,Mostly Cloudy,230,2013-07-01 15:18:00
11:43 AM,84.2,71.6,66,29.93,10.0,SW,13.8,-,N/A,,Mostly Cloudy,230,2013-07-01 15:43:00
11:53 AM,84.9,72.0,65,29.93,10.0,SW,15.0,-,N/A,,Mostly Cloudy,220,2013-07-01 15:53:00
12:53 PM,86.0,72.0,63,29.93,10.0,SSW,10.4,-,N/A,,Mostly Cloudy,210,2013-07-01 16:53:00
1:41 PM,82.4,75.2,79,29.91,10.0,SW,5.8,-,0.08,,Mostly Cloudy,220,2013-07-01 17:41:00
1:48 PM,82.4,75.2,79,29.92,10.0,SSW,6.9,-,0.08,Thunderstorm,Thunderstorm,210,2013-07-01 17:48:00
1:53 PM,82.9,75.0,77,29.92,10.0,SSW,8.1,-,0.08,Thunderstorm,Thunderstorm,210,2013-07-01 17:53:00
2:03 PM,77.0,71.6,83,29.94,1.8,SSW,18.4,35.7,0.12,Rain-Thunderstorm,Heavy Thunderstorms and Rain,200,2013-07-01 18:03:00
2:12 PM,75.2,71.6,89,29.94,3.0,South,12.7,28.8,0.17,Rain-Thunderstorm,Heavy Thunderstorms and Rain,190,2013-07-01 18:12:00
2:53 PM,75.0,71.1,87,29.95,3.0,South,5.8,-,0.32,Rain-Thunderstorm,Thunderstorms and Rain,180,2013-07-01 18:53:00
3:43 PM,75.2,71.6,89,29.94,10.0,South,6.9,-,0.02,Rain,Light Rain,190,2013-07-01 19:43:00
3:53 PM,75.9,71.1,85,29.94,10.0,South,5.8,-,0.02,Rain,Light Rain,170,2013-07-01 19:53:00
4:53 PM,75.0,71.1,87,29.95,9.0,SSW,9.2,-,0.16,Rain,Rain,210,2013-07-01 20:53:00
5:53 PM,73.9,70.0,87,29.96,10.0,South,6.9,-,0.09,Rain,Light Rain,170,2013-07-01 21:53:00
6:53 PM,73.9,70.0,87,29.97,10.0,SSE,5.8,-,0.06,,Overcast,160,2013-07-01 22:53:00
7:53 PM,73.9,71.1,91,30.00,8.0,SSW,4.6,-,0.13,Rain,Rain,200,2013-07-01 23:53:00
8:53 PM,75.0,71.1,87,29.99,10.0,Calm,Calm,-,0.09,Rain,Light Rain,0,2013-07-02 00:53:00
9:47 PM,75.2,71.6,89,30.02,3.0,South,4.6,-,0.13,Rain,Heavy Rain,170,2013-07-02 01:47:00
9:53 PM,73.9,71.1,91,30.01,2.0,SSW,4.6,-,0.21,Rain,Heavy Rain,200,2013-07-02 01:53:00
10:03 PM,75.2,71.6,89,30.02,8.0,SSW,6.9,-,0.01,Rain,Light Rain,210,2013-07-02 02:03:00
10:20 PM,75.2,71.6,89,30.02,10.0,SE,4.6,-,0.02,,Scattered Clouds,140,2013-07-02 02:20:00
10:53 PM,75.0,71.1,87,30.03,10.0,SSE,4.6,-,0.02,Rain,Light Rain,150,2013-07-02 02:53:00
11:12 PM,75.2,71.6,89,30.03,9.0,SSE,3.5,-,0.01,Rain,Light Rain,160,2013-07-02 03:12:00
11:19 PM,75.2,71.6,89,30.03,7.0,Calm,Calm,-,0.01,Rain,Light Rain,0,2013-07-02 03:19:00
11:53 PM,75.0,72.0,90,30.04,10.0,SSE,5.8,-,0.02,Rain,Light Rain,160,2013-07-02 03:53:00